Time;durP1;ratioP1;P1;durP2;ratioP2;P2;SDS_P1;SDS_P2;PMS_P1;PMS_P2;Temp;Humidity;BMP_temperature;BMP_pressure;BME280_temperature;BME280_humidity;BME280_pressure;Samples;Min_cycle;Max_cycle;Signal;HPM_P1;HPM_P2
2023/07/04 00:04:59;;;;;;;21.85;11.77;;;;;;;;;;10456029;28;20413;-83
2023/07/04 00:10:02;;;;;;;21.45;12.18;;;;;;;;;;10459492;28;20057;-79
2023/07/04 00:15:03;;;;;;;23.35;11.02;;;;;;;;;;10445899;28;20056;-80
2023/07/04 00:20:04;;;;;;;23.13;12.10;;;;;;;;;;10446163;28;20388;-82
2023/07/04 00:25:06;;;;;;;19.20;11.30;;;;;;;;;;10446089;28;20037;-80
2023/07/04 00:30:09;;;;;;;24.65;12.15;;;;;;;;;;10446209;28;20039;-80
2023/07/04 00:35:11;;;;;;;24.40;12.18;;;;;;;;;;10445731;28;20527;-81
2023/07/04 00:40:12;;;;;;;20.02;11.43;;;;;;;;;;10445472;28;20499;-79
2023/07/04 00:45:21;;;;;;;25.17;11.90;;;;;;;;;;10445569;28;20042;-79
2023/07/04 00:50:27;;;;;;;23.20;10.90;;;;;;;;;;10445720;28;20148;-79
2023/07/04 00:55:28;;;;;;;22.63;11.32;;;;;;;;;;10445303;28;20102;-81
2023/07/04 01:00:31;;;;;;;25.00;10.30;;;;;;;;;;10444636;28;20064;-81
2023/07/04 01:05:44;;;;;;;19.92;10.80;;;;;;;;;;10432630;28;20037;-79
2023/07/04 01:10:46;;;;;;;19.27;10.40;;;;;;;;;;10444948;28;20049;-79
2023/07/04 01:15:47;;;;;;;17.70;9.43;;;;;;;;;;10443971;28;20032;-82
2023/07/04 01:20:49;;;;;;;19.60;10.48;;;;;;;;;;10444814;28;20468;-79
2023/07/04 01:25:59;;;;;;;18.52;10.35;;;;;;;;;;10443964;28;20029;-81
2023/07/04 01:31:00;;;;;;;21.58;11.00;;;;;;;;;;10443988;28;20044;-80
2023/07/04 01:36:02;;;;;;;21.60;10.80;;;;;;;;;;10445065;28;20040;-79
2023/07/04 01:41:03;;;;;;;19.50;10.63;;;;;;;;;;10444348;28;20043;-79
2023/07/04 01:46:04;;;;;;;21.20;10.60;;;;;;;;;;10444021;28;20515;-79
2023/07/04 01:51:05;;;;;;;19.92;10.20;;;;;;;;;;10444601;28;20032;-80
2023/07/04 01:56:06;;;;;;;20.77;11.15;;;;;;;;;;10444097;28;20422;-79
2023/07/04 02:01:07;;;;;;;20.10;9.55;;;;;;;;;;10443758;28;20049;-80
2023/07/04 02:06:08;;;;;;;21.60;10.82;;;;;;;;;;10443426;28;20048;-79
2023/07/04 02:11:10;;;;;;;21.05;11.40;;;;;;;;;;10444170;28;20487;-79
2023/07/04 02:16:11;;;;;;;23.75;10.40;;;;;;;;;;10443340;28;20440;-80
2023/07/04 02:21:12;;;;;;;17.98;11.50;;;;;;;;;;10443697;28;20041;-79
2023/07/04 02:26:13;;;;;;;19.75;10.55;;;;;;;;;;10445204;28;20032;-81
2023/07/04 02:31:14;;;;;;;19.33;11.23;;;;;;;;;;10450410;28;20516;-81
2023/07/04 02:36:15;;;;;;;20.88;10.75;;;;;;;;;;10450941;28;20043;-80
2023/07/04 02:41:16;;;;;;;28.75;11.25;;;;;;;;;;10450180;28;20053;-80
2023/07/04 02:46:17;;;;;;;19.60;10.60;;;;;;;;;;10449933;28;20033;-79
2023/07/04 02:51:18;;;;;;;23.02;11.13;;;;;;;;;;10450179;28;20037;-80
2023/07/04 02:56:19;;;;;;;21.63;10.65;;;;;;;;;;10449983;28;20025;-80
2023/07/04 03:01:20;;;;;;;18.80;10.73;;;;;;;;;;10450331;28;20045;-80
2023/07/04 03:06:21;;;;;;;20.67;11.13;;;;;;;;;;10449600;28;20068;-79
2023/07/04 03:11:22;;;;;;;19.02;10.23;;;;;;;;;;10448852;28;20073;-79
2023/07/04 03:16:23;;;;;;;22.05;10.65;;;;;;;;;;10449023;28;20037;-80
2023/07/04 03:21:24;;;;;;;22.83;11.98;;;;;;;;;;10448611;28;20045;-81
2023/07/04 03:26:25;;;;;;;19.92;10.13;;;;;;;;;;10448486;28;20029;-79
2023/07/04 03:31:26;;;;;;;20.70;11.07;;;;;;;;;;10447536;28;20029;-79
2023/07/04 03:36:27;;;;;;;19.35;10.90;;;;;;;;;;10448068;28;20047;-81
2023/07/04 03:41:28;;;;;;;20.92;10.82;;;;;;;;;;10447701;28;20068;-80
2023/07/04 03:46:29;;;;;;;23.88;11.27;;;;;;;;;;10448299;28;20527;-78
2023/07/04 03:51:30;;;;;;;20.65;10.90;;;;;;;;;;10447746;28;20033;-80
2023/07/04 03:56:31;;;;;;;19.05;10.93;;;;;;;;;;10447622;28;20380;-80
2023/07/04 04:01:32;;;;;;;21.48;10.80;;;;;;;;;;10446528;28;20048;-80
2023/07/04 04:06:33;;;;;;;21.02;11.05;;;;;;;;;;10447882;28;20029;-79
2023/07/04 04:11:34;;;;;;;18.02;10.23;;;;;;;;;;10446675;28;20500;-80
2023/07/04 04:16:36;;;;;;;22.48;12.38;;;;;;;;;;10446603;28;20060;-79
2023/07/04 04:21:37;;;;;;;24.65;11.77;;;;;;;;;;10446114;28;20110;-79
2023/07/04 04:26:38;;;;;;;17.92;11.30;;;;;;;;;;10433691;28;20037;-80
2023/07/04 04:31:39;;;;;;;24.88;11.85;;;;;;;;;;10445352;28;20033;-80
2023/07/04 04:36:40;;;;;;;21.77;12.57;;;;;;;;;;10446140;28;20029;-80
2023/07/04 04:41:42;;;;;;;24.25;12.88;;;;;;;;;;10446090;28;20044;-80
2023/07/04 04:46:48;;;;;;;18.98;11.43;;;;;;;;;;10445489;28;20739;-80
2023/07/04 04:51:52;;;;;;;19.60;11.77;;;;;;;;;;10445561;28;20025;-80
2023/07/04 04:56:53;;;;;;;22.85;12.13;;;;;;;;;;10445158;28;20083;-80
2023/07/04 05:01:54;;;;;;;19.05;11.05;;;;;;;;;;10445510;28;20116;-80
2023/07/04 05:06:55;;;;;;;21.98;12.20;;;;;;;;;;10445546;28;20067;-82
2023/07/04 05:11:56;;;;;;;23.17;12.77;;;;;;;;;;10443558;28;20055;-81
2023/07/04 05:16:57;;;;;;;21.35;12.55;;;;;;;;;;10445387;28;20033;-81
2023/07/04 05:21:58;;;;;;;23.17;12.52;;;;;;;;;;10444771;28;20040;-79
2023/07/04 05:27:01;;;;;;;26.25;13.20;;;;;;;;;;10443929;28;20068;-80
2023/07/04 05:32:02;;;;;;;22.23;12.88;;;;;;;;;;10444739;28;20048;-80
2023/07/04 05:37:03;;;;;;;21.98;12.75;;;;;;;;;;10443555;28;20037;-79
2023/07/04 05:42:04;;;;;;;22.02;12.48;;;;;;;;;;10444057;28;20067;-81
2023/07/04 05:47:05;;;;;;;19.27;10.85;;;;;;;;;;10443844;28;20036;-81
2023/07/04 05:52:07;;;;;;;21.95;10.68;;;;;;;;;;10442475;28;20028;-79
2023/07/04 05:57:08;;;;;;;25.58;12.35;;;;;;;;;;10443825;28;20032;-79
2023/07/04 06:02:10;;;;;;;23.13;11.93;;;;;;;;;;10447913;28;20559;-82
2023/07/04 06:07:11;;;;;;;21.42;11.23;;;;;;;;;;10451958;28;20029;-82
2023/07/04 06:12:12;;;;;;;20.13;12.20;;;;;;;;;;10450745;28;20064;-79
2023/07/04 06:17:13;;;;;;;20.55;11.13;;;;;;;;;;10452747;28;20060;-80
2023/07/04 06:22:14;;;;;;;18.45;9.63;;;;;;;;;;10451082;28;20029;-81
2023/07/04 06:27:15;;;;;;;20.80;10.07;;;;;;;;;;10451931;28;20613;-81
2023/07/04 06:32:16;;;;;;;22.25;12.10;;;;;;;;;;10451719;28;20605;-79
2023/07/04 06:37:17;;;;;;;21.17;10.93;;;;;;;;;;10459286;28;20048;-83
2023/07/04 06:42:18;;;;;;;23.33;11.68;;;;;;;;;;10445024;28;20491;-82
2023/07/04 06:47:19;;;;;;;21.50;11.30;;;;;;;;;;10449884;28;20039;-83
2023/07/04 06:52:20;;;;;;;23.75;11.18;;;;;;;;;;10450017;28;20040;-82
2023/07/04 06:57:21;;;;;;;19.58;11.07;;;;;;;;;;10448854;28;20029;-81
2023/07/04 07:02:24;;;;;;;20.92;11.57;;;;;;;;;;10448955;28;20044;-83
2023/07/04 07:07:25;;;;;;;15.60;8.48;;;;;;;;;;10449409;28;20364;-80
2023/07/04 07:12:26;;;;;;;18.40;9.30;;;;;;;;;;10448258;28;20512;-82
2023/07/04 07:17:27;;;;;;;16.58;9.55;;;;;;;;;;10448887;28;20064;-84
2023/07/04 07:22:28;;;;;;;15.63;8.48;;;;;;;;;;10449039;28;20048;-83
2023/07/04 07:27:29;;;;;;;20.02;9.20;;;;;;;;;;10449505;28;20650;-83
2023/07/04 07:32:31;;;;;;;17.73;8.75;;;;;;;;;;10448853;28;20158;-83
2023/07/04 07:37:32;;;;;;;16.90;8.45;;;;;;;;;;10448809;28;20041;-83
2023/07/04 07:42:33;;;;;;;19.45;7.13;;;;;;;;;;10447977;28;20041;-83
2023/07/04 07:47:34;;;;;;;12.95;7.20;;;;;;;;;;10448183;28;20028;-83
2023/07/04 07:52:35;;;;;;;11.20;6.15;;;;;;;;;;10448463;28;20441;-84
2023/07/04 07:57:36;;;;;;;15.20;6.72;;;;;;;;;;10447464;28;20064;-84
2023/07/04 08:02:37;;;;;;;19.27;7.80;;;;;;;;;;10448111;28;20029;-83
2023/07/04 08:07:38;;;;;;;14.48;6.68;;;;;;;;;;10446266;28;20041;-83
2023/07/04 08:12:39;;;;;;;10.40;5.10;;;;;;;;;;10447179;28;20571;-83
2023/07/04 08:17:40;;;;;;;8.90;4.63;;;;;;;;;;10446559;28;20037;-83
2023/07/04 08:22:41;;;;;;;11.98;4.88;;;;;;;;;;10446431;28;20811;-83
2023/07/04 08:27:42;;;;;;;11.27;4.80;;;;;;;;;;10446632;28;20033;-83
2023/07/04 08:32:43;;;;;;;13.85;5.80;;;;;;;;;;10446712;28;20029;-84
2023/07/04 08:37:44;;;;;;;10.23;5.20;;;;;;;;;;10446383;28;20373;-84
2023/07/04 08:42:46;;;;;;;9.85;4.82;;;;;;;;;;10445417;28;20036;-84
2023/07/04 08:47:48;;;;;;;10.55;4.43;;;;;;;;;;10445295;28;20106;-85
2023/07/04 08:53:17;;;;;;;10.25;4.40;;;;;;;;;;10445102;28;20032;-84
2023/07/04 08:58:21;;;;;;;10.85;4.70;;;;;;;;;;10445972;28;20029;-83
2023/07/04 09:03:27;;;;;;;6.80;3.38;;;;;;;;;;10444596;28;20044;-84
2023/07/04 09:08:38;;;;;;;5.68;3.28;;;;;;;;;;10435955;28;20056;-83
2023/07/04 09:13:43;;;;;;;7.63;3.50;;;;;;;;;;10445314;28;20037;-83
2023/07/04 09:18:44;;;;;;;8.90;3.30;;;;;;;;;;10453914;28;20045;-84
2023/07/04 09:23:46;;;;;;;8.38;3.42;;;;;;;;;;10443380;28;20396;-84
2023/07/04 09:28:51;;;;;;;7.13;4.03;;;;;;;;;;10444503;28;20037;-82
2023/07/04 09:33:53;;;;;;;10.38;4.07;;;;;;;;;;10443749;28;20111;-84
2023/07/04 09:38:58;;;;;;;7.18;4.20;;;;;;;;;;10451727;28;20048;-84
2023/07/04 09:44:19;;;;;;;11.52;4.57;;;;;;;;;;10453284;28;20561;-83
2023/07/04 09:49:20;;;;;;;9.40;5.25;;;;;;;;;;10451670;28;20518;-82
2023/07/04 09:54:21;;;;;;;11.77;4.20;;;;;;;;;;10452008;28;20112;-83
2023/07/04 09:59:25;;;;;;;11.48;5.93;;;;;;;;;;10451513;28;20476;-83
2023/07/04 10:04:34;;;;;;;11.35;6.32;;;;;;;;;;10451946;28;20049;-82
2023/07/04 10:09:35;;;;;;;10.73;5.80;;;;;;;;;;10450579;28;20041;-84
2023/07/04 10:14:37;;;;;;;9.38;5.65;;;;;;;;;;10451669;28;20484;-86
2023/07/04 10:19:42;;;;;;;13.63;8.18;;;;;;;;;;10450394;28;20063;-83
2023/07/04 10:24:43;;;;;;;14.57;7.85;;;;;;;;;;10466519;28;20519;-84
2023/07/04 10:29:47;;;;;;;11.63;7.90;;;;;;;;;;10450524;28;20036;-84
2023/07/04 10:34:49;;;;;;;11.25;6.25;;;;;;;;;;10448950;28;20074;-82
2023/07/04 10:39:54;;;;;;;9.75;6.18;;;;;;;;;;10444148;28;20033;-82
2023/07/04 10:44:57;;;;;;;10.23;5.57;;;;;;;;;;10449184;28;20021;-83
2023/07/04 10:50:18;;;;;;;9.25;5.70;;;;;;;;;;10448890;28;20867;-83
2023/07/04 10:55:29;;;;;;;11.48;5.68;;;;;;;;;;10448678;28;20071;-82
2023/07/04 11:00:34;;;;;;;7.97;5.40;;;;;;;;;;10450313;28;20037;-83
2023/07/04 11:05:40;;;;;;;9.93;6.65;;;;;;;;;;10436860;28;20028;-82
2023/07/04 11:10:42;;;;;;;11.32;6.70;;;;;;;;;;10449848;28;20098;-82
2023/07/04 11:15:46;;;;;;;9.75;6.80;;;;;;;;;;10449747;28;20035;-81
2023/07/04 11:20:52;;;;;;;10.38;6.13;;;;;;;;;;10449218;28;20036;-82
2023/07/04 11:25:59;;;;;;;7.72;5.47;;;;;;;;;;10449691;28;20476;-82
2023/07/04 11:31:14;;;;;;;9.77;5.63;;;;;;;;;;10449066;28;20028;-81
2023/07/04 11:36:17;;;;;;;8.15;5.47;;;;;;;;;;10448452;28;20496;-82
2023/07/04 11:41:28;;;;;;;7.47;4.60;;;;;;;;;;10447284;28;20525;-82
2023/07/04 11:46:30;;;;;;;7.10;4.47;;;;;;;;;;10448282;28;20024;-83
2023/07/04 11:51:32;;;;;;;6.60;4.60;;;;;;;;;;10447426;28;20109;-85
2023/07/04 11:56:35;;;;;;;5.82;2.85;;;;;;;;;;10448107;28;20051;-84
2023/07/04 12:01:51;;;;;;;4.28;3.20;;;;;;;;;;10447731;28;20687;-86
2023/07/04 12:06:58;;;;;;;5.28;3.25;;;;;;;;;;10446801;28;20056;-83
2023/07/04 12:12:02;;;;;;;4.97;2.88;;;;;;;;;;10446798;28;20168;-85
2023/07/04 12:17:03;;;;;;;5.25;2.85;;;;;;;;;;10447533;28;20025;-82
2023/07/04 12:22:04;;;;;;;7.30;3.00;;;;;;;;;;10446778;28;20539;-83
2023/07/04 12:27:06;;;;;;;2.53;1.85;;;;;;;;;;10446952;28;20159;-82
2023/07/04 12:32:08;;;;;;;3.55;2.20;;;;;;;;;;10447621;28;20037;-84
2023/07/04 12:37:14;;;;;;;3.85;2.50;;;;;;;;;;10445357;28;20062;-84
2023/07/04 12:42:26;;;;;;;3.58;1.75;;;;;;;;;;10446346;28;20617;-83
2023/07/04 12:47:31;;;;;;;5.50;2.67;;;;;;;;;;10446212;28;20056;-82
2023/07/04 12:52:34;;;;;;;3.15;2.05;;;;;;;;;;10444998;28;20773;-83
2023/07/04 12:57:35;;;;;;;2.65;2.00;;;;;;;;;;10446024;28;20045;-83
2023/07/04 13:02:36;;;;;;;2.38;1.83;;;;;;;;;;10445252;28;20072;-83
2023/07/04 13:07:37;;;;;;;7.57;2.58;;;;;;;;;;10443477;28;20036;-83
2023/07/04 13:12:41;;;;;;;3.65;1.65;;;;;;;;;;10444487;28;20554;-84
2023/07/04 13:18:01;;;;;;;4.20;2.10;;;;;;;;;;10444767;28;20032;-83
2023/07/04 13:23:25;;;;;;;3.40;2.35;;;;;;;;;;10445279;28;20291;-83
2023/07/04 13:28:28;;;;;;;3.97;2.13;;;;;;;;;;10438778;28;20472;-83
2023/07/04 13:33:35;;;;;;;4.43;2.30;;;;;;;;;;10444344;28;20028;-83
2023/07/04 13:38:36;;;;;;;5.20;2.30;;;;;;;;;;10444478;28;20037;-83
2023/07/04 13:43:38;;;;;;;4.70;2.60;;;;;;;;;;10444425;28;20044;-84
2023/07/04 13:48:39;;;;;;;5.10;2.47;;;;;;;;;;10443606;28;20032;-86
2023/07/04 13:53:40;;;;;;;4.18;2.08;;;;;;;;;;10443974;28;20060;-86
2023/07/04 13:58:41;;;;;;;5.93;2.25;;;;;;;;;;10443595;28;20814;-83
2023/07/04 14:03:42;;;;;;;3.17;1.90;;;;;;;;;;10444485;28;20029;-84
2023/07/04 14:08:44;;;;;;;4.45;1.95;;;;;;;;;;10444085;28;20045;-85
2023/07/04 14:13:46;;;;;;;2.78;2.08;;;;;;;;;;10443833;28;20024;-82
2023/07/04 14:18:47;;;;;;;4.55;2.13;;;;;;;;;;10444352;28;20036;-84
2023/07/04 14:23:48;;;;;;;3.95;2.42;;;;;;;;;;10447901;28;20029;-82
2023/07/04 14:28:51;;;;;;;7.38;2.75;;;;;;;;;;10451732;28;20798;-83
2023/07/04 14:33:55;;;;;;;3.97;2.50;;;;;;;;;;10451099;28;20033;-83
2023/07/04 14:38:56;;;;;;;4.45;2.10;;;;;;;;;;10450069;28;20120;-81
2023/07/04 14:43:57;;;;;;;4.25;2.25;;;;;;;;;;10451079;28;20099;-82
2023/07/04 14:48:58;;;;;;;5.22;2.42;;;;;;;;;;10449858;28;20052;-84
2023/07/04 14:53:59;;;;;;;4.75;2.85;;;;;;;;;;10449993;28;20041;-81
2023/07/04 14:59:00;;;;;;;3.25;1.95;;;;;;;;;;10449568;28;20037;-83
2023/07/04 15:04:02;;;;;;;4.57;2.25;;;;;;;;;;10450798;28;20048;-82
2023/07/04 15:09:05;;;;;;;2.80;1.98;;;;;;;;;;10450342;28;20522;-81
2023/07/04 15:14:06;;;;;;;4.80;2.10;;;;;;;;;;10440158;28;20029;-82
2023/07/04 15:19:07;;;;;;;3.20;1.95;;;;;;;;;;10449259;28;20072;-81
2023/07/04 15:24:08;;;;;;;4.22;2.30;;;;;;;;;;10446211;28;20036;-80
2023/07/04 15:29:09;;;;;;;4.35;1.55;;;;;;;;;;10449167;28;20484;-81
2023/07/04 15:34:10;;;;;;;3.78;1.85;;;;;;;;;;10447869;28;20037;-80
2023/07/04 15:39:11;;;;;;;6.72;2.20;;;;;;;;;;10447473;28;20056;-81
2023/07/04 15:44:12;;;;;;;3.28;2.22;;;;;;;;;;10447911;28;20362;-82
2023/07/04 15:49:13;;;;;;;4.35;2.58;;;;;;;;;;10448215;28;20162;-81
2023/07/04 15:54:15;;;;;;;5.07;2.40;;;;;;;;;;10448509;28;20037;-80
2023/07/04 15:59:16;;;;;;;5.47;2.33;;;;;;;;;;10447470;28;20568;-81
2023/07/04 16:04:17;;;;;;;4.68;2.70;;;;;;;;;;10437279;28;20249;-81
2023/07/04 16:09:18;;;;;;;5.72;3.15;;;;;;;;;;10446160;28;20053;-80
2023/07/04 16:14:19;;;;;;;4.43;2.58;;;;;;;;;;10440220;28;20422;-80
2023/07/04 16:19:20;;;;;;;5.32;2.45;;;;;;;;;;10447425;28;20068;-80
2023/07/04 16:24:21;;;;;;;3.70;2.80;;;;;;;;;;10447115;28;20025;-81
2023/07/04 16:29:22;;;;;;;6.03;2.97;;;;;;;;;;10447107;28;20035;-81
2023/07/04 16:34:23;;;;;;;4.25;2.25;;;;;;;;;;10439876;28;20090;-80
2023/07/04 16:39:24;;;;;;;4.18;2.78;;;;;;;;;;10444704;28;20506;-81
2023/07/04 16:44:28;;;;;;;4.13;2.78;;;;;;;;;;10431723;28;20029;-83
2023/07/04 16:49:29;;;;;;;5.07;2.67;;;;;;;;;;10443305;28;20039;-81
2023/07/04 16:54:30;;;;;;;4.35;3.08;;;;;;;;;;10458518;28;20182;-81
2023/07/04 16:59:31;;;;;;;6.05;3.28;;;;;;;;;;10441792;28;20369;-81
2023/07/04 17:04:32;;;;;;;5.10;3.30;;;;;;;;;;10442104;28;20028;-81
2023/07/04 17:09:33;;;;;;;8.73;2.85;;;;;;;;;;10443149;28;20613;-81
2023/07/04 17:14:34;;;;;;;5.22;3.33;;;;;;;;;;10450759;28;20037;-81
2023/07/04 17:19:35;;;;;;;4.57;2.90;;;;;;;;;;10442220;28;20047;-81
2023/07/04 17:24:36;;;;;;;6.90;3.17;;;;;;;;;;10444462;28;20029;-80
2023/07/04 17:29:37;;;;;;;6.53;3.47;;;;;;;;;;10442783;28;20771;-81
2023/07/04 17:34:38;;;;;;;5.30;3.08;;;;;;;;;;10443710;28;20028;-81
2023/07/04 17:39:39;;;;;;;7.40;3.83;;;;;;;;;;10442733;28;20119;-81
2023/07/04 17:44:40;;;;;;;6.38;3.47;;;;;;;;;;10442979;28;20735;-81
2023/07/04 17:49:41;;;;;;;5.97;3.60;;;;;;;;;;10442791;28;20120;-80
2023/07/04 17:54:42;;;;;;;6.25;4.07;;;;;;;;;;10441680;28;20033;-81
2023/07/04 17:59:44;;;;;;;5.15;3.35;;;;;;;;;;10448199;28;20786;-81
2023/07/04 18:04:45;;;;;;;11.43;4.00;;;;;;;;;;10448726;28;20029;-81
2023/07/04 18:09:46;;;;;;;8.73;4.15;;;;;;;;;;10448529;28;20041;-80
2023/07/04 18:14:48;;;;;;;6.05;3.72;;;;;;;;;;10448637;28;20140;-81
2023/07/04 18:19:51;;;;;;;8.00;4.63;;;;;;;;;;10446816;28;20041;-81
2023/07/04 18:24:53;;;;;;;7.63;4.25;;;;;;;;;;10447443;28;20167;-81
2023/07/04 18:29:54;;;;;;;5.57;3.38;;;;;;;;;;10448979;28;20469;-80
2023/07/04 18:34:55;;;;;;;7.72;3.85;;;;;;;;;;10447918;28;20132;-81
2023/07/04 18:39:56;;;;;;;7.78;3.92;;;;;;;;;;10448690;28;20056;-81
2023/07/04 18:44:57;;;;;;;8.25;3.92;;;;;;;;;;10451724;28;20414;-82
2023/07/04 18:49:58;;;;;;;8.02;4.50;;;;;;;;;;10449468;28;20579;-81
2023/07/04 18:54:59;;;;;;;5.07;3.45;;;;;;;;;;10450357;28;20032;-81
2023/07/04 19:00:00;;;;;;;8.18;3.13;;;;;;;;;;10449802;28;20048;-81
2023/07/04 19:05:01;;;;;;;5.80;3.42;;;;;;;;;;10448663;28;20227;-81
2023/07/04 19:10:03;;;;;;;6.60;3.67;;;;;;;;;;10448299;28;20209;-80
2023/07/04 19:15:04;;;;;;;7.70;3.50;;;;;;;;;;10450041;28;20021;-81
2023/07/04 19:20:05;;;;;;;7.30;3.30;;;;;;;;;;10449971;28;20094;-79
2023/07/04 19:25:06;;;;;;;6.57;3.53;;;;;;;;;;10437234;28;20024;-77
2023/07/04 19:30:08;;;;;;;5.85;3.25;;;;;;;;;;10447594;28;20086;-78
2023/07/04 19:35:09;;;;;;;4.07;2.92;;;;;;;;;;10447577;28;20078;-78
2023/07/04 19:40:10;;;;;;;7.15;3.22;;;;;;;;;;10436319;28;20048;-80
2023/07/04 19:45:11;;;;;;;7.30;3.90;;;;;;;;;;10449285;28;20032;-80
2023/07/04 19:50:13;;;;;;;5.72;3.63;;;;;;;;;;10449011;28;20442;-82
2023/07/04 19:55:16;;;;;;;6.25;3.45;;;;;;;;;;10447622;28;20366;-79
2023/07/04 20:00:17;;;;;;;6.57;3.20;;;;;;;;;;10447273;28;20040;-81
2023/07/04 20:05:18;;;;;;;5.05;3.63;;;;;;;;;;10446946;28;20048;-80
2023/07/04 20:10:19;;;;;;;8.05;3.33;;;;;;;;;;10446598;28;20155;-80
2023/07/04 20:15:20;;;;;;;5.05;3.20;;;;;;;;;;10446641;28;20057;-80
2023/07/04 20:20:21;;;;;;;4.60;3.22;;;;;;;;;;10446844;28;20405;-80
2023/07/04 20:25:22;;;;;;;7.75;3.00;;;;;;;;;;10446620;28;20037;-79
2023/07/04 20:30:26;;;;;;;6.88;3.92;;;;;;;;;;10446194;28;20194;-80
2023/07/04 20:35:27;;;;;;;6.70;3.63;;;;;;;;;;10446569;28;20033;-79
2023/07/04 20:40:28;;;;;;;6.00;3.65;;;;;;;;;;10445594;28;20041;-78
2023/07/04 20:45:29;;;;;;;6.13;3.90;;;;;;;;;;10436225;28;20028;-77
2023/07/04 20:50:31;;;;;;;6.70;4.00;;;;;;;;;;10444364;28;20044;-77
2023/07/04 20:55:39;;;;;;;8.45;3.83;;;;;;;;;;10445341;28;20032;-80
2023/07/04 21:00:40;;;;;;;4.70;3.60;;;;;;;;;;10445475;28;20040;-78
2023/07/04 21:05:41;;;;;;;5.88;3.50;;;;;;;;;;10445039;28;20090;-77
2023/07/04 21:10:42;;;;;;;7.97;4.57;;;;;;;;;;10444693;28;20056;-78
2023/07/04 21:15:43;;;;;;;10.02;5.03;;;;;;;;;;10444593;28;20070;-78
2023/07/04 21:20:45;;;;;;;17.05;6.82;;;;;;;;;;10445084;28;20098;-80
2023/07/04 21:25:47;;;;;;;9.80;6.32;;;;;;;;;;10444287;28;20037;-77
2023/07/04 21:30:48;;;;;;;9.70;5.95;;;;;;;;;;10443488;28;20033;-79
2023/07/04 21:35:50;;;;;;;10.30;4.90;;;;;;;;;;10444552;28;20072;-77
2023/07/04 21:40:58;;;;;;;7.63;4.15;;;;;;;;;;10444472;28;20041;-77
2023/07/04 21:46:03;;;;;;;7.05;4.38;;;;;;;;;;10443587;28;20074;-77
2023/07/04 21:51:05;;;;;;;8.18;3.90;;;;;;;;;;10444492;28;20115;-78
2023/07/04 21:56:06;;;;;;;8.00;4.00;;;;;;;;;;10442308;28;20423;-77
2023/07/04 22:01:08;;;;;;;6.60;4.22;;;;;;;;;;10444014;28;20057;-77
2023/07/04 22:06:10;;;;;;;8.15;4.35;;;;;;;;;;10444341;28;20032;-79
2023/07/04 22:11:12;;;;;;;7.35;4.82;;;;;;;;;;10441732;28;20095;-77
2023/07/04 22:16:15;;;;;;;7.60;4.45;;;;;;;;;;10442383;28;20041;-79
2023/07/04 22:21:16;;;;;;;10.70;5.20;;;;;;;;;;10443182;28;20045;-78
2023/07/04 22:26:17;;;;;;;10.27;5.40;;;;;;;;;;10444069;28;20052;-79
2023/07/04 22:31:19;;;;;;;8.35;4.75;;;;;;;;;;10442436;28;20033;-79
2023/07/04 22:36:20;;;;;;;8.20;5.60;;;;;;;;;;10443180;28;20610;-78
2023/07/04 22:41:21;;;;;;;8.70;5.05;;;;;;;;;;10441864;28;20388;-78
2023/07/04 22:46:22;;;;;;;10.30;5.70;;;;;;;;;;10447038;28;20029;-77
2023/07/04 22:51:23;;;;;;;10.32;5.20;;;;;;;;;;10450734;28;20037;-78
2023/07/04 22:56:25;;;;;;;13.35;5.43;;;;;;;;;;10449501;28;20044;-80
2023/07/04 23:01:26;;;;;;;10.35;5.18;;;;;;;;;;10449434;28;20041;-77
2023/07/04 23:06:33;;;;;;;11.55;5.40;;;;;;;;;;10450043;28;20041;-78
2023/07/04 23:11:34;;;;;;;9.68;5.68;;;;;;;;;;10441112;28;20109;-77
2023/07/04 23:16:35;;;;;;;8.18;4.82;;;;;;;;;;10448525;28;20072;-80
2023/07/04 23:21:36;;;;;;;12.35;5.80;;;;;;;;;;10448761;28;20044;-79
2023/07/04 23:26:37;;;;;;;8.95;5.72;;;;;;;;;;10448987;28;20123;-78
2023/07/04 23:31:38;;;;;;;12.40;5.18;;;;;;;;;;10448397;28;20029;-78
2023/07/04 23:36:39;;;;;;;12.20;5.57;;;;;;;;;;10448514;28;20037;-79
2023/07/04 23:41:40;;;;;;;9.30;5.60;;;;;;;;;;10446512;28;20115;-80
2023/07/04 23:46:41;;;;;;;9.90;5.60;;;;;;;;;;10447071;28;20367;-78
2023/07/04 23:51:42;;;;;;;11.05;5.80;;;;;;;;;;10447671;28;20400;-78
2023/07/04 23:56:43;;;;;;;9.23;5.53;;;;;;;;;;10447731;28;20447;-79
